createdAt,value
2023-04-28T00:00:04.640Z,47.94
2023-04-28T00:02:54.368Z,47.86
2023-04-28T00:05:25.360Z,47.77
2023-04-28T00:07:53.944Z,47.73
2023-04-28T00:10:21.915Z,47.79
2023-04-28T00:12:49.890Z,47.63
2023-04-28T00:15:17.974Z,47.72
2023-04-28T00:17:45.903Z,47.90
2023-04-28T00:20:14.022Z,47.98
2023-04-28T00:22:42.105Z,47.75
2023-04-28T00:25:10.484Z,47.78
2023-04-28T00:27:38.465Z,47.89
2023-04-28T00:30:06.958Z,47.84
2023-04-28T00:32:35.094Z,47.83
2023-04-28T00:35:03.747Z,47.85
2023-04-28T00:37:31.877Z,47.80
2023-04-28T00:39:59.859Z,47.94
2023-04-28T00:42:27.839Z,47.70
2023-04-28T00:44:55.918Z,47.72
2023-04-28T00:47:24.180Z,47.84
2023-04-28T00:49:53.189Z,48.04
2023-04-28T00:52:21.374Z,47.84
2023-04-28T00:54:49.445Z,47.94
2023-04-28T00:57:18.050Z,47.89
2023-04-28T00:59:46.313Z,47.99
2023-04-28T01:02:18.645Z,47.78
2023-04-28T01:04:47.276Z,47.96
2023-04-28T01:07:15.867Z,47.81
2023-04-28T01:09:44.358Z,47.78
2023-04-28T01:12:14.372Z,47.91
2023-04-28T01:14:44.689Z,47.78
2023-04-28T01:17:12.780Z,47.80
2023-04-28T01:19:41.773Z,47.96
2023-04-28T01:22:15.578Z,47.95
2023-04-28T01:24:44.884Z,47.87
2023-04-28T01:27:14.089Z,47.70
2023-04-28T01:29:42.977Z,47.77
2023-04-28T01:32:11.276Z,47.78
2023-04-28T01:34:40.774Z,47.80
2023-04-28T01:37:09.257Z,47.83
2023-04-28T01:39:38.351Z,47.81
2023-04-28T01:42:06.535Z,47.90
2023-04-28T01:44:35.134Z,47.98
2023-04-28T01:47:03.007Z,47.77
2023-04-28T01:49:30.982Z,47.75
2023-04-28T01:51:59.053Z,48.05
2023-04-28T01:54:27.630Z,47.85
2023-04-28T01:56:56.000Z,47.88
2023-04-28T01:59:24.170Z,47.93
2023-04-28T02:01:52.317Z,47.90
2023-04-28T02:04:20.894Z,47.86
2023-04-28T02:06:48.944Z,47.96
2023-04-28T02:09:16.811Z,47.93
2023-04-28T02:11:44.892Z,48.04
2023-04-28T02:14:12.940Z,47.97
2023-04-28T02:16:41.147Z,47.94
2023-04-28T02:19:09.426Z,48.00
2023-04-28T02:21:37.391Z,47.98
2023-04-28T02:24:05.679Z,47.86
2023-04-28T02:26:33.954Z,47.87
2023-04-28T02:29:04.454Z,47.99
2023-04-28T02:31:34.026Z,48.00
2023-04-28T02:34:02.128Z,48.16
2023-04-28T02:36:29.945Z,48.01
2023-04-28T02:38:58.230Z,48.05
2023-04-28T02:41:30.295Z,47.97
2023-04-28T02:43:58.262Z,47.94
2023-04-28T02:46:26.470Z,47.92
2023-04-28T02:48:54.483Z,48.10
2023-04-28T02:51:22.591Z,48.00
2023-04-28T02:53:50.883Z,48.11
2023-04-28T02:56:18.854Z,47.89
2023-04-28T02:58:46.939Z,48.07
2023-04-28T03:01:14.966Z,47.85
2023-04-28T03:03:43.183Z,47.97
2023-04-28T03:06:11.673Z,47.95
2023-04-28T03:08:39.747Z,47.95
2023-04-28T03:11:07.693Z,47.97
2023-04-28T03:13:36.405Z,47.99
2023-04-28T03:16:04.979Z,47.92
2023-04-28T03:18:33.510Z,47.89
2023-04-28T03:21:01.768Z,48.00
2023-04-28T03:23:29.812Z,47.91
2023-04-28T03:25:57.811Z,48.03
2023-04-28T03:28:26.637Z,47.86
2023-04-28T03:30:54.683Z,47.96
2023-04-28T03:33:22.667Z,48.02
2023-04-28T03:35:51.052Z,47.96
2023-04-28T03:38:19.842Z,48.00
2023-04-28T03:40:48.317Z,48.01
2023-04-28T03:43:16.298Z,47.96
2023-04-28T03:46:05.334Z,48.02
2023-04-28T03:48:34.337Z,48.07
2023-04-28T03:51:03.552Z,48.14
2023-04-28T03:53:32.548Z,48.07
2023-04-28T03:56:00.423Z,48.06
2023-04-28T03:58:28.784Z,48.10
2023-04-28T04:00:56.801Z,48.10
2023-04-28T04:03:27.299Z,48.00
2023-04-28T04:05:57.532Z,48.15
2023-04-28T04:08:25.822Z,48.11
2023-04-28T04:10:56.148Z,48.23
2023-04-28T04:13:24.223Z,48.21
2023-04-28T04:15:53.170Z,48.13
2023-04-28T04:18:22.935Z,48.32
2023-04-28T04:21:17.414Z,48.30
2023-04-28T04:23:46.149Z,48.24
2023-04-28T04:26:14.031Z,48.25
2023-04-28T04:28:42.149Z,48.33
2023-04-28T04:31:10.775Z,48.29
2023-04-28T04:33:39.018Z,48.32
2023-04-28T04:36:08.223Z,48.45
2023-04-28T04:38:36.302Z,48.39
2023-04-28T04:41:13.169Z,48.44
2023-04-28T04:43:41.561Z,48.56
2023-04-28T04:46:09.596Z,48.43
2023-04-28T04:48:37.500Z,48.49
2023-04-28T04:51:05.581Z,48.48
2023-04-28T04:53:33.656Z,48.52
2023-04-28T04:56:02.887Z,48.61
2023-04-28T04:58:31.451Z,48.64
2023-04-28T05:01:12.432Z,48.66
2023-04-28T05:03:40.402Z,48.76
2023-04-28T05:06:08.679Z,48.76
2023-04-28T05:08:47.703Z,48.81
2023-04-28T05:11:16.382Z,48.78
2023-04-28T05:13:45.698Z,48.72
2023-04-28T05:16:13.899Z,48.75
2023-04-28T05:18:56.382Z,48.70
2023-04-28T05:21:24.252Z,48.84
2023-04-28T05:23:53.896Z,48.91
2023-04-28T05:26:22.852Z,48.93
2023-04-28T05:28:54.522Z,48.96
2023-04-28T05:31:22.529Z,48.97
2023-04-28T05:33:52.108Z,49.03
2023-04-28T05:36:20.514Z,49.03
2023-04-28T05:38:48.467Z,49.03
2023-04-28T05:41:16.581Z,49.08
2023-04-28T05:43:46.451Z,48.98
2023-04-28T05:46:28.288Z,49.15
2023-04-28T05:48:58.253Z,49.16
2023-04-28T05:51:27.378Z,49.17
2023-04-28T05:53:55.444Z,49.19
2023-04-28T05:56:24.144Z,49.24
2023-04-28T05:58:52.102Z,49.18
2023-04-28T06:01:20.084Z,49.24
2023-04-28T06:03:48.142Z,49.31
2023-04-28T06:06:16.607Z,49.36
2023-04-28T06:08:44.820Z,49.39
2023-04-28T06:11:12.891Z,49.39
2023-04-28T06:13:41.088Z,49.41
2023-04-28T06:16:09.875Z,49.58
2023-04-28T06:18:38.456Z,49.46
2023-04-28T06:21:06.644Z,49.59
2023-04-28T06:23:34.906Z,49.65
2023-04-28T06:26:02.860Z,49.50
2023-04-28T06:28:30.868Z,49.57
2023-04-28T06:31:00.072Z,49.60
2023-04-28T06:33:28.138Z,49.55
2023-04-28T06:35:56.524Z,49.54
2023-04-28T06:38:24.615Z,49.43
2023-04-28T06:40:52.795Z,49.56
2023-04-28T06:43:21.774Z,49.45
2023-04-28T06:46:15.964Z,49.51
2023-04-28T06:48:44.026Z,49.58
2023-04-28T06:51:11.878Z,49.31
2023-04-28T06:53:40.187Z,49.45
2023-04-28T06:56:11.368Z,49.44
2023-04-28T06:58:39.894Z,49.28
2023-04-28T07:01:07.955Z,49.22
2023-04-28T07:03:36.402Z,49.31
2023-04-28T07:06:04.760Z,49.20
2023-04-28T07:08:32.850Z,49.33
2023-04-28T07:11:04.726Z,49.31
2023-04-28T07:13:33.468Z,49.26
2023-04-28T07:16:01.669Z,49.06
2023-04-28T07:18:29.978Z,49.25
2023-04-28T07:20:58.054Z,49.42
2023-04-28T07:23:25.899Z,49.28
2023-04-28T07:25:53.768Z,49.20
2023-04-28T07:28:21.660Z,49.13
2023-04-28T07:30:49.509Z,49.21
2023-04-28T07:33:17.496Z,48.92
2023-04-28T07:35:45.471Z,49.16
2023-04-28T07:38:13.635Z,49.13
2023-04-28T07:40:43.458Z,49.02
2023-04-28T07:43:11.221Z,49.06
2023-04-28T07:45:40.105Z,48.98
2023-04-28T07:48:08.657Z,48.98
2023-04-28T07:50:36.902Z,48.96
2023-04-28T07:53:04.854Z,48.97
2023-04-28T07:55:33.074Z,49.04
2023-04-28T07:58:01.848Z,49.09
2023-04-28T08:00:29.603Z,49.06
2023-04-28T08:02:57.890Z,49.00
2023-04-28T08:05:26.479Z,49.02
2023-04-28T08:07:54.748Z,49.01
2023-04-28T08:10:22.921Z,48.88
2023-04-28T08:12:51.514Z,48.80
2023-04-28T08:15:19.564Z,48.88
2023-04-28T08:17:47.720Z,48.99
2023-04-28T08:20:16.059Z,48.73
2023-04-28T08:22:44.023Z,48.24
2023-04-28T08:25:11.869Z,48.32
2023-04-28T08:27:40.284Z,48.31
2023-04-28T08:30:08.566Z,48.19
2023-04-28T08:32:36.684Z,48.14
2023-04-28T08:35:05.337Z,48.16
2023-04-28T08:37:33.310Z,48.16
2023-04-28T08:40:10.066Z,48.29
2023-04-28T08:42:38.674Z,48.14
2023-04-28T08:45:06.954Z,48.29
2023-04-28T08:47:36.284Z,48.31
2023-04-28T08:50:05.461Z,48.41
2023-04-28T08:52:34.026Z,48.29
2023-04-28T08:55:06.002Z,48.15
2023-04-28T08:57:43.406Z,47.93
2023-04-28T09:00:11.784Z,47.96
2023-04-28T09:02:42.443Z,47.82
2023-04-28T09:05:12.102Z,47.62
2023-04-28T09:07:41.006Z,47.54
2023-04-28T09:10:19.550Z,47.54
2023-04-28T09:12:49.167Z,47.35
2023-04-28T09:15:46.496Z,47.44
2023-04-28T09:18:14.986Z,47.04
2023-04-28T09:20:44.626Z,47.18
2023-04-28T09:23:17.778Z,47.10
2023-04-28T09:26:05.388Z,47.32
2023-04-28T09:28:34.399Z,47.34
2023-04-28T09:31:02.873Z,47.30
2023-04-28T09:33:30.994Z,47.15
2023-04-28T09:35:58.934Z,47.00
2023-04-28T09:38:27.016Z,46.93
2023-04-28T09:40:55.062Z,46.82
2023-04-28T09:43:24.488Z,46.77
2023-04-28T09:45:54.054Z,46.80
2023-04-28T09:48:35.529Z,46.66
2023-04-28T09:51:07.746Z,46.68
2023-04-28T09:53:35.844Z,46.63
2023-04-28T09:56:05.478Z,46.50
2023-04-28T09:58:35.572Z,46.21
2023-04-28T10:01:06.191Z,46.17
2023-04-28T10:03:34.648Z,46.02
2023-04-28T10:06:02.830Z,45.99
2023-04-28T10:08:30.961Z,46.11
2023-04-28T10:10:59.339Z,46.00
2023-04-28T10:13:27.320Z,46.06
2023-04-28T10:15:55.954Z,46.02
2023-04-28T10:18:25.105Z,45.96
2023-04-28T10:20:58.920Z,45.99
2023-04-28T10:23:47.058Z,45.98
2023-04-28T10:26:18.603Z,46.01
2023-04-28T10:28:47.494Z,45.96
2023-04-28T10:31:16.819Z,45.99
2023-04-28T10:33:44.983Z,45.94
2023-04-28T10:36:36.214Z,46.01
2023-04-28T10:39:14.374Z,45.99
2023-04-28T10:41:42.410Z,45.60
2023-04-28T10:44:29.098Z,45.53
2023-04-28T10:47:01.206Z,45.53
2023-04-28T10:49:47.947Z,45.52
2023-04-28T10:52:40.987Z,45.49
2023-04-28T10:55:27.293Z,45.46
2023-04-28T10:58:14.085Z,45.45
2023-04-28T11:00:43.188Z,45.43
2023-04-28T11:03:30.329Z,45.41
2023-04-28T11:06:17.706Z,45.46
2023-04-28T11:08:45.682Z,45.51
2023-04-28T11:11:21.627Z,45.52
2023-04-28T11:13:50.561Z,45.56
2023-04-28T11:16:20.725Z,45.48
2023-04-28T11:18:55.121Z,45.38
2023-04-28T11:21:25.201Z,45.36
2023-04-28T11:23:53.274Z,45.27
2023-04-28T11:26:21.465Z,45.12
2023-04-28T11:28:50.761Z,44.90
2023-04-28T11:31:20.837Z,44.87
2023-04-28T11:33:54.386Z,44.86
2023-04-28T11:36:26.566Z,44.92
2023-04-28T11:38:56.304Z,44.91
2023-04-28T11:41:24.651Z,44.88
2023-04-28T11:43:53.146Z,44.89
2023-04-28T11:46:22.373Z,44.91
2023-04-28T11:49:01.160Z,44.87
2023-04-28T11:51:33.563Z,44.80
2023-04-28T11:54:02.524Z,44.87
2023-04-28T11:56:32.145Z,44.84
2023-04-28T11:59:01.890Z,44.84
2023-04-28T12:01:33.127Z,44.90
2023-04-28T12:04:01.414Z,44.67
2023-04-28T12:06:29.972Z,44.63
2023-04-28T12:08:58.261Z,44.58
2023-04-28T12:11:26.641Z,44.64
2023-04-28T12:14:04.851Z,44.66
2023-04-28T12:16:44.868Z,44.50
2023-04-28T12:19:13.163Z,44.42
2023-04-28T12:21:41.559Z,44.27
2023-04-28T12:24:16.849Z,44.28
2023-04-28T12:26:44.858Z,44.23
2023-04-28T12:29:31.780Z,44.18
2023-04-28T12:31:59.864Z,44.14
2023-04-28T12:34:29.684Z,44.22
2023-04-28T12:36:58.113Z,44.14
2023-04-28T12:39:27.270Z,44.18
2023-04-28T12:41:55.327Z,44.13
2023-04-28T12:44:23.216Z,44.06
2023-04-28T12:46:51.797Z,43.97
2023-04-28T12:49:19.775Z,43.90
2023-04-28T12:51:47.756Z,43.94
2023-04-28T12:54:15.825Z,43.91
2023-04-28T12:56:43.807Z,43.97
2023-04-28T12:59:12.100Z,43.84
2023-04-28T13:01:40.459Z,43.90
2023-04-28T13:04:09.850Z,43.77
2023-04-28T13:06:38.448Z,43.73
2023-04-28T13:09:06.640Z,43.78
2023-04-28T13:11:34.857Z,43.77
2023-04-28T13:14:04.005Z,43.74
2023-04-28T13:16:31.942Z,43.64
2023-04-28T13:19:00.800Z,43.56
2023-04-28T13:21:28.770Z,43.50
2023-04-28T13:23:57.046Z,43.31
2023-04-28T13:26:24.932Z,43.26
2023-04-28T13:28:52.997Z,43.18
2023-04-28T13:31:21.207Z,43.15
2023-04-28T13:33:49.168Z,43.12
2023-04-28T13:36:17.338Z,43.15
2023-04-28T13:38:48.988Z,43.14
2023-04-28T13:41:17.378Z,43.14
2023-04-28T13:43:45.338Z,43.15
2023-04-28T13:46:13.587Z,43.07
2023-04-28T13:48:41.602Z,42.82
2023-04-28T13:51:09.886Z,42.79
2023-04-28T13:53:38.669Z,42.33
2023-04-28T13:56:06.962Z,42.32
2023-04-28T13:58:35.230Z,42.30
2023-04-28T14:01:04.607Z,42.34
2023-04-28T14:03:32.894Z,42.42
2023-04-28T14:06:01.617Z,42.27
2023-04-28T14:08:29.588Z,42.25
2023-04-28T14:10:57.670Z,42.22
2023-04-28T14:13:25.757Z,42.34
2023-04-28T14:15:59.593Z,42.49
2023-04-28T14:18:28.436Z,42.44
2023-04-28T14:20:56.558Z,42.39
2023-04-28T14:23:24.522Z,42.44
2023-04-28T14:25:56.100Z,42.45
2023-04-28T14:28:24.236Z,42.51
2023-04-28T14:30:54.090Z,42.83
2023-04-28T14:33:22.019Z,42.72
2023-04-28T14:35:50.012Z,42.38
2023-04-28T14:38:17.986Z,42.39
2023-04-28T14:40:45.947Z,42.28
2023-04-28T14:43:14.230Z,42.22
2023-04-28T14:45:42.186Z,41.98
2023-04-28T14:48:10.992Z,41.69
2023-04-28T14:50:38.969Z,41.36
2023-04-28T14:53:07.813Z,41.36
2023-04-28T14:55:35.835Z,41.36
2023-04-28T14:58:04.565Z,41.42
2023-04-28T15:00:32.818Z,41.35
2023-04-28T15:03:01.041Z,41.32
2023-04-28T15:05:29.268Z,41.31
2023-04-28T15:07:57.756Z,41.30
2023-04-28T15:10:30.951Z,41.39
2023-04-28T15:12:58.926Z,41.40
2023-04-28T15:15:27.610Z,41.37
2023-04-28T15:18:00.738Z,41.25
2023-04-28T15:20:33.467Z,41.15
2023-04-28T15:23:01.780Z,41.13
2023-04-28T15:25:29.755Z,41.13
2023-04-28T15:27:57.617Z,41.21
2023-04-28T15:30:25.802Z,41.20
2023-04-28T15:32:53.863Z,41.23
2023-04-28T15:35:22.349Z,41.31
2023-04-28T15:37:52.248Z,41.28
2023-04-28T15:40:21.508Z,41.31
2023-04-28T15:42:49.659Z,41.28
2023-04-28T15:45:19.062Z,41.26
2023-04-28T15:47:48.360Z,41.39
2023-04-28T15:50:18.773Z,41.39
2023-04-28T15:52:48.621Z,41.43
2023-04-28T15:55:17.715Z,41.32
2023-04-28T15:57:46.416Z,41.39
2023-04-28T16:00:15.617Z,41.38
2023-04-28T16:02:44.723Z,41.48
2023-04-28T16:05:13.435Z,41.34
2023-04-28T16:07:41.805Z,41.33
2023-04-28T16:10:11.623Z,41.38
2023-04-28T16:12:40.218Z,41.22
2023-04-28T16:15:09.590Z,41.22
2023-04-28T16:17:38.822Z,41.22
2023-04-28T16:20:08.009Z,41.10
2023-04-28T16:22:36.899Z,41.08
2023-04-28T16:25:05.391Z,41.06
2023-04-28T16:27:33.844Z,41.05
2023-04-28T16:30:02.049Z,41.01
2023-04-28T16:32:30.695Z,40.99
2023-04-28T16:34:58.733Z,40.95
2023-04-28T16:37:26.796Z,40.98
2023-04-28T16:39:55.673Z,40.86
2023-04-28T16:42:23.769Z,40.95
2023-04-28T16:44:53.018Z,40.87
2023-04-28T16:47:21.892Z,40.80
2023-04-28T16:49:50.168Z,40.83
2023-04-28T16:52:18.274Z,40.78
2023-04-28T16:54:46.398Z,40.81
2023-04-28T16:57:14.285Z,40.67
2023-04-28T16:59:42.344Z,40.00
2023-04-28T17:02:10.500Z,39.76
2023-04-28T17:04:38.890Z,39.54
2023-04-28T17:07:07.593Z,39.68
2023-04-28T17:09:35.818Z,39.60
2023-04-28T17:12:03.925Z,39.66
2023-04-28T17:14:32.238Z,40.10
2023-04-28T17:17:00.300Z,40.39
2023-04-28T17:19:28.189Z,40.46
2023-04-28T17:21:56.371Z,40.19
2023-04-28T17:24:24.444Z,40.32
2023-04-28T17:26:52.665Z,40.41
2023-04-28T17:29:22.218Z,40.54
2023-04-28T17:31:50.459Z,40.37
2023-04-28T17:34:20.114Z,40.61
2023-04-28T17:36:48.411Z,40.78
2023-04-28T17:39:16.684Z,40.83
2023-04-28T17:41:45.377Z,40.85
2023-04-28T17:44:13.558Z,40.88
2023-04-28T17:46:42.615Z,40.91
2023-04-28T17:49:11.055Z,41.16
2023-04-28T17:51:38.953Z,41.34
2023-04-28T17:54:09.697Z,41.56
2023-04-28T17:56:38.625Z,41.79
2023-04-28T17:59:08.368Z,41.77
2023-04-28T18:01:36.342Z,41.91
2023-04-28T18:04:04.412Z,42.01
2023-04-28T18:06:32.306Z,42.29
2023-04-28T18:09:00.439Z,42.35
2023-04-28T18:11:28.332Z,42.43
2023-04-28T18:13:58.206Z,42.53
2023-04-28T18:16:26.584Z,42.57
2023-04-28T18:18:54.500Z,42.66
2023-04-28T18:21:22.513Z,42.82
2023-04-28T18:23:50.416Z,42.97
2023-04-28T18:26:18.739Z,43.09
2023-04-28T18:28:48.168Z,43.35
2023-04-28T18:31:16.358Z,43.27
2023-04-28T18:33:45.108Z,43.39
2023-04-28T18:36:13.417Z,43.48
2023-04-28T18:38:41.404Z,43.70
2023-04-28T18:41:17.349Z,43.72
2023-04-28T18:43:45.304Z,43.90
2023-04-28T18:46:15.859Z,44.09
2023-04-28T18:48:44.310Z,44.00
2023-04-28T18:51:15.672Z,44.12
2023-04-28T18:53:43.553Z,44.15
2023-04-28T18:56:13.562Z,44.27
2023-04-28T18:58:41.866Z,44.39
2023-04-28T19:01:14.406Z,44.51
2023-04-28T19:03:43.038Z,44.67
2023-04-28T19:06:12.067Z,44.68
2023-04-28T19:08:40.146Z,44.76
2023-04-28T19:11:09.801Z,44.80
2023-04-28T19:13:38.286Z,44.87
2023-04-28T19:16:06.565Z,44.82
2023-04-28T19:18:34.504Z,45.06
2023-04-28T19:21:04.352Z,45.01
2023-04-28T19:23:35.808Z,44.96
2023-04-28T19:26:03.912Z,45.26
2023-04-28T19:28:31.864Z,45.35
2023-04-28T19:31:00.067Z,45.48
2023-04-28T19:33:28.513Z,45.65
2023-04-28T19:35:56.969Z,45.64
2023-04-28T19:38:24.904Z,45.72
2023-04-28T19:41:02.043Z,45.76
2023-04-28T19:43:31.002Z,45.87
2023-04-28T19:45:59.391Z,45.99
2023-04-28T19:48:27.425Z,46.06
2023-04-28T19:50:55.637Z,46.02
2023-04-28T19:53:24.303Z,46.19
2023-04-28T19:55:52.272Z,46.16
2023-04-28T19:58:20.955Z,46.39
2023-04-28T20:00:49.034Z,46.30
2023-04-28T20:03:17.542Z,46.49
2023-04-28T20:05:46.243Z,46.54
2023-04-28T20:08:14.389Z,46.68
2023-04-28T20:10:42.582Z,46.64
2023-04-28T20:13:11.052Z,46.74
2023-04-28T20:15:39.191Z,46.75
2023-04-28T20:18:07.559Z,46.75
2023-04-28T20:20:35.700Z,46.75
2023-04-28T20:23:03.696Z,46.89
2023-04-28T20:25:35.529Z,47.02
2023-04-28T20:28:03.363Z,47.18
2023-04-28T20:30:31.480Z,47.33
2023-04-28T20:32:59.630Z,47.53
2023-04-28T20:35:28.048Z,47.38
2023-04-28T20:37:55.859Z,47.66
2023-04-28T20:40:23.682Z,47.48
2023-04-28T20:42:51.532Z,47.71
2023-04-28T20:45:19.730Z,48.03
2023-04-28T20:47:48.030Z,47.89
2023-04-28T20:50:16.295Z,47.92
2023-04-28T20:52:44.158Z,48.19
2023-04-28T20:55:12.544Z,48.22
2023-04-28T20:57:40.615Z,48.04
2023-04-28T21:00:09.103Z,48.24
2023-04-28T21:02:37.996Z,48.33
2023-04-28T21:05:06.395Z,48.47
2023-04-28T21:07:34.366Z,48.79
2023-04-28T21:10:02.359Z,48.86
2023-04-28T21:12:30.411Z,49.13
2023-04-28T21:15:00.713Z,49.23
2023-04-28T21:17:28.658Z,49.16
2023-04-28T21:19:57.524Z,49.32
2023-04-28T21:22:25.371Z,49.22
2023-04-28T21:24:54.691Z,49.28
2023-04-28T21:27:22.858Z,49.28
2023-04-28T21:29:51.363Z,49.30
2023-04-28T21:32:19.401Z,49.39
2023-04-28T21:34:48.943Z,49.42
2023-04-28T21:37:16.992Z,49.36
2023-04-28T21:39:44.980Z,49.24
2023-04-28T21:42:13.067Z,49.47
2023-04-28T21:44:41.131Z,49.33
2023-04-28T21:47:09.256Z,49.22
2023-04-28T21:49:37.583Z,49.30
2023-04-28T21:52:05.474Z,49.41
2023-04-28T21:54:33.437Z,49.28
2023-04-28T21:57:02.242Z,49.23
2023-04-28T21:59:30.175Z,49.35
2023-04-28T22:01:59.202Z,49.37
2023-04-28T22:04:27.963Z,49.40
2023-04-28T22:06:56.174Z,49.42
2023-04-28T22:09:24.352Z,49.33
2023-04-28T22:11:52.439Z,49.42
2023-04-28T22:14:38.674Z,49.49
2023-04-28T22:17:08.786Z,49.44
2023-04-28T22:19:36.925Z,49.37
2023-04-28T22:22:04.748Z,49.21
2023-04-28T22:24:32.974Z,49.41
2023-04-28T22:27:00.935Z,49.41
2023-04-28T22:29:29.030Z,49.48
2023-04-28T22:31:58.751Z,49.43
2023-04-28T22:34:26.811Z,49.46
2023-04-28T22:36:55.300Z,49.37
2023-04-28T22:39:25.271Z,49.36
2023-04-28T22:41:53.309Z,49.50
2023-04-28T22:44:21.573Z,49.41
2023-04-28T22:46:49.782Z,49.58
2023-04-28T22:49:17.717Z,49.55
2023-04-28T22:51:45.606Z,49.60
2023-04-28T22:54:13.782Z,49.58
2023-04-28T22:56:41.958Z,49.64
2023-04-28T22:59:10.010Z,49.48
2023-04-28T23:01:38.278Z,49.52
2023-04-28T23:04:07.095Z,49.57
2023-04-28T23:06:35.500Z,49.63
2023-04-28T23:09:03.761Z,49.73
2023-04-28T23:11:31.689Z,49.62
2023-04-28T23:13:59.627Z,49.69
2023-04-28T23:16:27.617Z,49.78
2023-04-28T23:18:55.971Z,49.74
2023-04-28T23:21:23.846Z,49.74
2023-04-28T23:23:51.718Z,49.87
2023-04-28T23:26:21.638Z,49.72
2023-04-28T23:28:49.597Z,49.74
2023-04-28T23:31:17.847Z,49.91
2023-04-28T23:33:45.977Z,49.89
2023-04-28T23:36:13.939Z,49.83
2023-04-28T23:38:42.225Z,49.90
2023-04-28T23:41:10.097Z,49.80
2023-04-28T23:43:38.278Z,49.87
2023-04-28T23:46:06.942Z,49.91
2023-04-28T23:48:35.144Z,49.85
2023-04-28T23:51:03.116Z,49.92
2023-04-28T23:53:30.998Z,49.91
2023-04-28T23:55:58.866Z,49.96
2023-04-28T23:58:26.735Z,49.95
